Data for 08/28/2014

Time Sea-Level Adjusted Pressure Absolute Pressure Temperature Relative Humidity Dew Point   
(mb) (inHg) (mb) (inHg) (C) (F) (%) (C) (F)
00:05 1022 30.18 851 25.13 14.4 57.8 51 4.4 39.9
00:10 1022 30.18 851 25.13 14.6 58.3 52 4.8 40.6
00:15 1022 30.18 851 25.13 14.6 58.3 50 4.3 39.8
00:20 1022 30.18 851 25.13 14.7 58.4 51 4.7 40.5
00:25 1022 30.18 851 25.13 14.5 58.1 52 5 41
00:30 1022 30.18 851 25.13 14.2 57.6 52 4.6 40.3
00:35 1022 30.18 851 25.13 14.1 57.4 54 4.9 40.9
00:40 1022 30.18 851 25.13 14.1 57.3 53 4.7 40.4
00:45 1022 30.18 851 25.13 14.4 58 49 4.1 39.3
00:50 1022 30.18 851 25.13 14.7 58.4 50 4.4 39.9
00:55 1022 30.18 851 25.13 14.4 57.9 51 4.6 40.3
01:00 1022 30.18 851 25.13 14.3 57.7 50 4.2 39.6
01:05 1022 30.18 851 25.13 14.6 58.3 49 4.2 39.6
01:10 1022 30.18 851 25.13 14.4 58 53 4.9 40.9
01:15 1022 30.18 851 25.13 14 57.3 52 4.5 40.1
01:20 1022 30.18 851 25.13 14.1 57.4 53 4.7 40.5
01:25 1022 30.18 851 25.13 14.1 57.3 51 4.2 39.5
01:30 1022 30.18 851 25.13 14.3 57.7 51 4.3 39.8
01:35 1022 30.18 851 25.13 14.2 57.5 51 4.3 39.7
01:40 1022 30.18 851 25.13 14.1 57.5 52 4.6 40.3
01:45 1022 30.18 851 25.13 14.1 57.5 51 4.2 39.5
01:50 1022 30.18 851 25.13 14.1 57.4 52 4.5 40.1
01:55 1022 30.18 851 25.13 13.7 56.7 55 4.8 40.6
02:00 1022 30.18 851 25.13 13.3 56 55 4.5 40.1
02:05 1022 30.18 851 25.13 13.5 56.3 53 4.3 39.7
02:10 1022 30.18 851 25.13 13.9 57 52 4.1 39.4
02:15 1022 30.18 851 25.13 13.9 57.1 53 4.5 40.1
02:20 1022 30.18 851 25.13 13.8 56.8 52 4.3 39.7
02:25 1022 30.18 851 25.13 13.8 56.8 54 4.6 40.3
02:30 1022 30.18 851 25.13 13.4 56.2 53 4 39.3
02:35 1022 30.18 851 25.13 13.7 56.7 53 4.3 39.7
02:40 1022 30.18 851 25.13 13.4 56.1 55 4.6 40.3
02:45 1022 30.18 851 25.13 12.9 55.2 56 4.5 40.1
02:50 1022 30.18 851 25.13 12.9 55.1 56 4.4 39.9
02:55 1022 30.18 851 25.13 12.9 55.3 55 4.3 39.7
03:00 1022 30.18 851 25.13 13.1 55.6 55 4.3 39.8
03:05 1022 30.18 851 25.13 13.2 55.7 55 4.3 39.7
03:10 1022 30.18 851 25.13 13.3 55.9 53 4 39.2
03:15 1022 30.18 851 25.13 13.4 56.1 54 4.5 40
03:20 1022 30.18 851 25.13 13.2 55.7 55 4.5 40
03:25 1022 30.18 851 25.13 12.9 55.3 56 4.4 39.9
03:30 1022 30.18 851 25.13 12.9 55.2 56 4.5 40
03:35 1022 30.18 851 25.13 12.6 54.7 58 4.7 40.4
03:40 1022 30.18 851 25.13 12.4 54.4 58 4.5 40.1
03:45 1022 30.18 851 25.13 12.4 54.4 59 4.6 40.3
03:50 1022 30.18 851 25.13 12.4 54.3 58 4.5 40
03:55 1022 30.18 851 25.13 12.3 54.1 59 4.6 40.3
04:00 1022 30.18 851 25.13 12.3 54.2 58 4.4 39.9
04:05 1022 30.18 851 25.13 12.6 54.6 58 4.5 40.2
04:10 1022 30.18 851 25.13 12.5 54.4 58 4.6 40.2
04:15 1022 30.18 851 25.13 12.4 54.4 58 4.4 39.9
04:20 1022 30.18 851 25.13 12.7 54.8 57 4.5 40.1
04:25 1022 30.18 851 25.13 12.7 54.9 56 4.3 39.8
04:30 1022 30.18 851 25.13 12.8 55 57 4.5 40.1
04:35 1022 30.18 851 25.13 12.9 55.2 55 4.1 39.4
04:40 1022 30.18 851 25.13 13.5 56.3 52 3.9 39
04:45 1022 30.18 851 25.13 13.7 56.7 53 4.5 40.1
04:50 1022 30.18 851 25.13 13.5 56.3 56 4.9 40.9
04:55 1022 30.18 851 25.13 12.8 55.1 58 4.7 40.5
05:00 1022 30.18 851 25.13 12.6 54.7 58 4.6 40.3
05:05 1022 30.18 851 25.13 12.8 55 56 4.2 39.5
05:10 1022 30.18 851 25.13 13.1 55.6 54 4.1 39.3
05:15 1022 30.18 851 25.13 13.3 56 57 5 41
05:20 1022 30.18 851 25.13 12.4 54.2 59 4.6 40.3
05:25 1022 30.18 851 25.13 12.3 54.2 58 4.4 39.9
05:30 1022 30.18 851 25.13 12.3 54.1 59 4.6 40.3
05:35 1022 30.18 851 25.13 12.3 54.1 58 4.3 39.7
05:40 1022 30.18 851 25.13 12.5 54.4 59 4.8 40.6
05:45 1022 30.18 851 25.13 12.3 54.1 59 4.7 40.4
05:50 1022 30.18 851 25.13 12.1 53.8 61 4.8 40.6
05:55 1022 30.18 851 25.13 12 53.5 62 4.9 40.8
06:00 1022 30.18 851 25.13 11.8 53.2 62 4.9 40.8
06:05 1022 30.18 851 25.13 11.9 53.5 61 4.6 40.4
06:10 1022 30.18 851 25.13 12.3 54.1 59 4.5 40
06:15 1022 30.18 851 25.13 12.8 55.1 57 4.6 40.3
06:20 1022 30.18 852 25.16 12.7 54.8 58 4.8 40.6
06:25 1022 30.18 852 25.16 13.2 55.7 54 4.2 39.6
06:30 1022 30.18 852 25.16 13.8 56.8 55 4.9 40.8
06:35 1022 30.18 852 25.16 13.5 56.3 57 5.2 41.4
06:40 1022 30.18 852 25.16 13.5 56.3 57 5.2 41.3
06:45 1023 30.21 852 25.16 13.7 56.7 56 5.1 41.2
06:50 1023 30.21 852 25.16 13.7 56.7 56 5.2 41.3
06:55 1023 30.21 852 25.16 13.8 56.8 56 5.3 41.6
07:00 1022 30.18 852 25.16 13.6 56.5 57 5.4 41.7
07:05 1023 30.21 852 25.16 13.6 56.5 58 5.6 42
07:10 1022 30.18 852 25.16 13.7 56.6 57 5.5 41.9
07:15 1023 30.21 852 25.16 14 57.3 56 5.6 42
07:20 1023 30.21 852 25.16 14.3 57.7 57 5.8 42.4
07:25 1023 30.21 852 25.16 14.7 58.4 54 5.6 42.2
07:30 1023 30.21 852 25.16 15.4 59.6 53 5.9 42.7
07:35 1023 30.21 852 25.16 15.7 60.3 52 6 42.7
07:40 1022 30.18 852 25.16 16.5 61.7 51 6.6 43.8
07:45 1022 30.18 852 25.16 16.1 61 53 6.6 44
07:50 1022 30.18 852 25.16 16.1 61.1 53 6.6 43.8
07:55 1022 30.18 852 25.16 16.2 61.2 53 6.8 44.3
08:00 1022 30.18 852 25.16 16.9 62.4 51 6.9 44.5
08:05 1022 30.18 852 25.16 17.3 63.2 49 6.7 44.1
08:10 1022 30.18 852 25.16 18 64.3 48 6.8 44.2
08:15 1022 30.18 852 25.16 18.2 64.8 47 6.8 44.3
08:20 1022 30.18 851 25.13 17.8 64.1 47 6.4 43.5
08:25 1022 30.18 851 25.13 18.2 64.8 43 5.7 42.3
08:30 1022 30.18 851 25.13 18.4 65.2 42 5.6 42
08:35 1022 30.18 851 25.13 19.3 66.7 39 5.1 41.1
08:40 1022 30.18 851 25.13 19.7 67.5 37 5 41
08:45 1022 30.18 851 25.13 20.4 68.7 37 5.2 41.3
08:50 1022 30.18 851 25.13 20 67.9 39 5.7 42.3
08:55 1022 30.18 851 25.13 20.7 69.2 34 4.6 40.3
09:00 1022 30.18 851 25.13 21.3 70.4 33 4.4 39.9
09:05 1022 30.18 851 25.13 21.7 71 32 4.6 40.3
09:10 1022 30.18 851 25.13 22 71.7 32 5 40.9
09:15 1022 30.18 851 25.13 22.2 71.9 33 5.5 42
09:20 1022 30.18 851 25.13 21.5 70.7 32 4.5 40.1
09:25 1022 30.18 851 25.13 22.1 71.9 32 5.1 41.1
09:30 1022 30.18 851 25.13 22.5 72.5 32 5 41.1
09:35 1022 30.18 851 25.13 22.4 72.4 32 5.3 41.6
09:40 1022 30.18 851 25.13 22.1 71.9 33 5.3 41.5
09:45 1022 30.18 851 25.13 22.7 72.9 32 5.3 41.6
09:50 1022 30.18 851 25.13 23.1 73.6 32 5.7 42.3
09:55 1022 30.18 851 25.13 23 73.3 31 5.2 41.3
10:00 1022 30.18 851 25.13 23 73.3 31 5.3 41.6
10:05 1022 30.18 851 25.13 24 75.3 28 4.9 40.7
10:10 1022 30.18 851 25.13 24.9 76.8 28 5.3 41.6
10:15 1022 30.18 851 25.13 25.2 77.3 28 5.4 41.8
10:20 1022 30.18 851 25.13 24.9 76.8 29 5.8 42.4
10:25 1022 30.18 851 25.13 24.9 76.9 28 5.7 42.2
10:30 1021 30.15 851 25.13 25.2 77.4 29 6 42.8
10:35 1021 30.15 851 25.13 25.1 77.1 29 6.1 43
10:40 1021 30.15 851 25.13 25.2 77.3 28 5.6 42
10:45 1021 30.15 851 25.13 26 78.8 28 6.3 43.3
10:50 1021 30.15 850 25.1 25.8 78.4 29 6.7 44
10:55 1021 30.15 850 25.1 25.9 78.6 28 6.2 43.1
11:00 1021 30.15 850 25.1 26.4 79.5 28 6.4 43.6
11:05 1021 30.15 850 25.1 26.3 79.4 29 7.3 45.1
11:10 1021 30.15 850 25.1 26.1 78.9 29 6.8 44.2
11:15 1021 30.15 850 25.1 26.2 79.2 28 6.6 44
11:20 1021 30.15 850 25.1 26.5 79.6 28 6.9 44.5
11:25 1021 30.15 850 25.1 26.9 80.4 26 6.3 43.4
11:30 1021 30.15 850 25.1 27.5 81.4 26 6.4 43.6
11:35 1021 30.15 850 25.1 27.4 81.4 27 6.9 44.4
11:40 1021 30.15 850 25.1 27.3 81.1 27 6.8 44.2
11:45 1021 30.15 850 25.1 27.7 81.8 25 6.1 43
11:50 1021 30.15 850 25.1 27.8 82 21 3.7 38.6
11:55 1020 30.12 850 25.1 27.8 82 20 2.8 37
12:00 1020 30.12 850 25.1 27.9 82.2 21 3.6 38.5
12:05 1020 30.12 850 25.1 27.8 82 17 1.1 34
12:10 1020 30.12 849 25.07 28.1 82.6 19 2.4 36.4
12:15 1020 30.12 849 25.07 27.7 81.9 19 2.6 36.6
12:20 1020 30.12 849 25.07 27.8 82.1 20 3.1 37.5
12:25 1020 30.12 849 25.07 28.3 82.9 19 2.5 36.4
12:30 1020 30.12 849 25.07 28.7 83.6 17 1.4 34.6
12:35 1020 30.12 849 25.07 28.3 83 19 2.9 37.3
12:40 1020 30.12 849 25.07 28.7 83.7 18 2.5 36.5
12:45 1020 30.12 849 25.07 28.1 82.5 19 2.8 37.1
12:50 1020 30.12 849 25.07 28.1 82.6 17 0.9 33.5
12:55 1020 30.12 849 25.07 27.6 81.7 18 1.5 34.7
13:00 1020 30.12 849 25.07 28 82.4 19 2.6 36.7
13:05 1020 30.12 849 25.07 28.8 83.8 18 2.2 36
13:10 1019 30.09 849 25.07 28.8 83.9 17 1.9 35.5
13:15 1019 30.09 849 25.07 28.8 83.8 17 1.8 35.3
13:20 1019 30.09 849 25.07 28.3 83 18 2.1 35.8
13:25 1019 30.09 848 25.04 28.5 83.4 18 2.2 35.9
13:30 1019 30.09 848 25.04 28.3 83 18 1.8 35.3
13:35 1019 30.09 848 25.04 29 84.1 16 0.9 33.7
13:40 1019 30.09 848 25.04 29.3 84.7 16 1 33.8
13:45 1019 30.09 848 25.04 28.5 83.3 17 1.5 34.7
13:50 1019 30.09 848 25.04 28.9 84 16 1.3 34.3
13:55 1019 30.09 848 25.04 29.7 85.4 16 1.6 34.8
14:00 1019 30.09 848 25.04 29 84.1 18 2.6 36.7
14:05 1019 30.09 848 25.04 28.9 84.1 17 1.8 35.2
14:10 1019 30.09 848 25.04 28.2 82.7 18 1.9 35.5
14:15 1018 30.06 848 25.04 28.5 83.3 19 2.7 36.8
14:20 1018 30.06 848 25.04 28.2 82.8 18 2.3 36.2
14:25 1018 30.06 848 25.04 28.4 83.1 18 2.4 36.3
14:30 1018 30.06 848 25.04 28.1 82.6 19 2.7 36.8
14:35 1018 30.06 848 25.04 28.1 82.5 19 2.6 36.7
14:40 1018 30.06 848 25.04 28.2 82.7 19 2.6 36.8
14:45 1018 30.06 847 25.01 28.7 83.6 20 3.9 38.9
14:50 1018 30.06 847 25.01 29 84.3 20 4.4 39.8
14:55 1018 30.06 847 25.01 28.1 82.6 22 4.6 40.3
15:00 1018 30.06 847 25.01 28.1 82.6 20 3.5 38.3
15:05 1018 30.06 847 25.01 28.1 82.6 21 3.8 38.8
15:10 1018 30.06 847 25.01 27.5 81.6 20 3 37.3
15:15 1018 30.06 847 25.01 27.9 82.2 19 2.5 36.4
15:20 1018 30.06 847 25.01 28.9 84 18 2.9 37.1
15:25 1018 30.06 847 25.01 28.9 83.9 19 3.4 38.1
15:30 1018 30.06 847 25.01 28.9 84 19 3.6 38.4
15:35 1018 30.06 847 25.01 28.2 82.8 20 3.5 38.4
15:40 1018 30.06 847 25.01 27.8 82.1 20 3.2 37.7
15:45 1018 30.06 847 25.01 27.4 81.4 20 2.8 37.1
15:50 1018 30.06 847 25.01 28.3 83 19 2.7 36.9
15:55 1018 30.06 847 25.01 29 84.1 19 3.4 38.1
16:00 1018 30.06 847 25.01 28.4 83.1 21 4.6 40.3
16:05 1018 30.06 847 25.01 27.6 81.7 22 4 39.3
16:10 1018 30.06 847 25.01 27.3 81.1 21 3.4 38.2
16:15 1018 30.06 847 25.01 27.6 81.7 21 3.5 38.3
16:20 1018 30.06 847 25.01 28.4 83.2 20 3.8 38.8
16:25 1018 30.06 847 25.01 28.1 82.5 20 3.4 38.1
16:30 1017 30.03 847 25.01 27.6 81.7 21 3.3 37.9
16:35 1017 30.03 847 25.01 27.7 81.9 20 3.3 37.9
16:40 1017 30.03 847 25.01 28.5 83.3 20 3.5 38.3
16:45 1017 30.03 847 25.01 28.7 83.6 20 3.9 39
16:50 1017 30.03 846 24.98 27.5 81.5 21 3.7 38.6
16:55 1017 30.03 846 24.98 27.1 80.8 23 4.2 39.6
17:00 1017 30.03 846 24.98 27.3 81.2 21 3.4 38.1
17:05 1017 30.03 846 24.98 27.4 81.3 22 4 39.1
17:10 1017 30.03 846 24.98 27.5 81.6 21 3.8 38.8
17:15 1017 30.03 846 24.98 27.6 81.7 21 3.8 38.8
17:20 1017 30.03 846 24.98 27.2 81 22 4 39.2
17:25 1017 30.03 846 24.98 26.8 80.3 22 3.7 38.7
17:30 1017 30.03 846 24.98 26.8 80.2 23 4.2 39.6
17:35 1017 30.03 846 24.98 26.6 79.8 23 4.3 39.7
17:40 1017 30.03 846 24.98 26.6 79.8 24 4.6 40.3
17:45 1017 30.03 846 24.98 26.7 80.1 22 3.5 38.3
17:50 1017 30.03 846 24.98 26.6 79.8 23 4.1 39.3
17:55 1017 30.03 846 24.98 26.5 79.6 23 3.7 38.6
18:00 1017 30.03 846 24.98 26.3 79.3 24 4.2 39.5
18:05 1017 30.03 846 24.98 26.1 79 27 6.2 43.1
18:10 1017 30.03 846 24.98 26 78.9 25 4.8 40.6
18:15 1017 30.03 846 24.98 25.5 77.8 31 7.6 45.6
18:20 1017 30.03 846 24.98 24.2 75.5 36 8.3 47
18:25 1017 30.03 846 24.98 23.3 73.9 37 8.2 46.7
18:30 1017 30.03 846 24.98 22.9 73.2 39 8.3 46.9
18:35 1017 30.03 846 24.98 23 73.3 38 8.2 46.8
18:40 1017 30.03 846 24.98 23 73.3 36 7.3 45.1
18:45 1017 30.03 846 24.98 23 73.4 38 8.2 46.7
18:50 1017 30.03 846 24.98 22.8 73 38 7.9 46.2
18:55 1017 30.03 846 24.98 22.3 72.1 39 7.7 45.9
19:00 1017 30.03 846 24.98 22 71.6 40 8 46.4
19:05 1017 30.03 847 25.01 22 71.6 39 7.6 45.7
19:10 1018 30.06 847 25.01 22 71.6 43 8.9 48
19:15 1018 30.06 847 25.01 21.4 70.6 37 6.3 43.3
19:20 1017 30.03 847 25.01 22.4 72.3 33 5.7 42.2
19:25 1017 30.03 847 25.01 22.6 72.6 32 5.1 41.2
19:30 1017 30.03 847 25.01 22.4 72.3 32 5.3 41.5
19:35 1017 30.03 847 25.01 22.4 72.4 31 4.6 40.3
19:40 1018 30.06 847 25.01 22.4 72.2 35 6.5 43.7
19:45 1018 30.06 847 25.01 21.7 71 43 8.7 47.6
19:50 1018 30.06 847 25.01 20.8 69.5 42 7.4 45.4
19:55 1018 30.06 847 25.01 20.7 69.3 44 8 46.5
20:00 1018 30.06 847 25.01 20.6 69.1 42 7.3 45.2
20:05 1018 30.06 847 25.01 20.7 69.3 44 8 46.4
20:10 1018 30.06 847 25.01 20.8 69.4 44 8.3 47
20:15 1018 30.06 847 25.01 20.1 68.1 47 8.5 47.2
20:20 1018 30.06 847 25.01 19.8 67.6 48 8.5 47.4
20:25 1018 30.06 847 25.01 19.6 67.3 48 8.4 47.1
20:30 1018 30.06 848 25.04 19.4 66.9 48 8.1 46.6
20:35 1018 30.06 848 25.04 19 66.3 51 8.7 47.7
20:40 1018 30.06 848 25.04 18.4 65.1 53 8.8 47.9
20:45 1018 30.06 848 25.04 18.2 64.8 51 8.1 46.6
20:50 1018 30.06 848 25.04 18.5 65.4 50 8.2 46.7
20:55 1018 30.06 848 25.04 18.7 65.6 49 8 46.4
21:00 1018 30.06 848 25.04 18.9 66 47 7.5 45.6
21:05 1019 30.09 848 25.04 19.1 66.3 44 6.8 44.2
21:10 1019 30.09 848 25.04 19.5 67.1 45 7.3 45.2
21:15 1019 30.09 848 25.04 19.5 67.1 46 7.6 45.7
21:20 1019 30.09 848 25.04 19.1 66.3 50 8.4 47.2
21:25 1019 30.09 848 25.04 18.5 65.2 48 7.4 45.4
21:30 1019 30.09 848 25.04 19 66.3 42 6 42.8
21:35 1019 30.09 848 25.04 19.8 67.6 42 6.7 44.1
21:40 1019 30.09 848 25.04 20 68.1 37 5.1 41.1
21:45 1019 30.09 849 25.07 20.7 69.3 33 3.9 39
21:50 1020 30.12 849 25.07 21.4 70.4 31 3.7 38.6
21:55 1020 30.12 849 25.07 21.4 70.5 33 4.7 40.4
22:00 1020 30.12 849 25.07 21.1 69.9 34 4.6 40.3
22:05 1020 30.12 849 25.07 21 69.8 34 4.8 40.6
22:10 1019 30.09 849 25.07 21 69.7 34 4.6 40.3
22:15 1020 30.12 849 25.07 20.8 69.5 35 5 41
22:20 1020 30.12 849 25.07 20.5 68.9 39 6.4 43.5
22:25 1020 30.12 849 25.07 19.5 67 44 7.2 44.9
22:30 1020 30.12 849 25.07 19.1 66.3 43 6.4 43.5
22:35 1020 30.12 849 25.07 19.2 66.5 43 6.6 43.8
22:40 1020 30.12 849 25.07 19.1 66.4 45 7 44.5
22:45 1020 30.12 849 25.07 19.1 66.3 46 7.2 45
22:50 1020 30.12 849 25.07 18.9 65.9 47 7.3 45.2
22:55 1020 30.12 849 25.07 18.6 65.5 49 7.8 46.1
23:00 1020 30.12 849 25.07 18.2 64.7 51 8.1 46.5
23:05 1020 30.12 849 25.07 18 64.3 50 7.4 45.4
23:10 1020 30.12 849 25.07 18.2 64.7 48 7.1 44.7
23:15 1020 30.12 849 25.07 18 64.3 48 7 44.6
23:20 1020 30.12 849 25.07 18 64.4 47 6.7 44
23:25 1020 30.12 849 25.07 18.2 64.8 46 6.7 44.1
23:30 1020 30.12 849 25.07 18.3 64.9 47 6.8 44.3
23:35 1020 30.12 849 25.07 18.2 64.7 49 7.3 45.1
23:40 1020 30.12 849 25.07 18.1 64.5 49 7.4 45.3
23:45 1020 30.12 849 25.07 17.9 64.2 51 7.7 45.9
23:50 1020 30.12 849 25.07 17.8 64.1 53 8.3 47
23:55 1020 30.12 849 25.07 17.4 63.3 57 8.9 48
24:00 1020 30.12 849 25.07 16.9 62.3 56 8.2 46.7